Barkersville, South Carolina
Current Conditions -  °F | °C
As of 8:56 PM on Wednesday 17 Dec 2014 (Local Time) from KNBC Reporting Station
Scattered Clouds Scattered Clouds  
Wind Chill: 48°   Ceiling: Unl
Heat Index: 48°   Visibility: 10mi
Dew Point: 43°   Wind: 0mph
Humidity: 83%   Direction: NA
Pressure: 30.12"   Gusts: NA
Location:  32.6221°N, 81.0484°W
Report Text: KNBC 180156Z 00000KT 10SM FEW150 SCT250 09/06 A3012 RMK AO2 SLP201 T00890061
Loading
Personal Weather Stations






























Interactive Weather Map New forecast layout! Learn more

10-Day Weather Forecast

Advertisements
Track Severe Weather on mobile